Detall de PIREP

Printer-friendly versionPDF version

[2016/05/28 09:25:00]
Flight IATA:CT3302
Pilot Number:012
Company ICAO:CAT
Aircraft Type:B752/E
PAX:180
Aircraft Registration:PAX
Departing Airport: LEZG
Destination Airport: DTTA
Alternate Airport:DABC
Online: VATSIM
Route:GRAUS UM601 BCN UN725 NOLVI UM739 TABOT UR723 TANIT UM733 TUC
Flight Level:F370
No Slew and time accel
No pause
Crash detect
Detect pilot in Cockpit between each 30 and 45 minutes
09:25 Zero fuel Weight: 172930 Lbs, Fuel Weight: 25899 Lbs
09:25 VATSIM:LEZG 280900Z 14002KT 9999 FEW050 24/08 Q1013
09:25 VATSIM:DTTA 280900Z 12004KT 060V180 9999 FEW030 26/18 Q1014 NOSIG
09:25 Parking Brakes off
09:29 Take-off
09:29 Take off Weight: 198125 Lbs
09:29 Wind: 140º @ 002 Knots Heading: 300º
09:29 POS N41º 39´ 47´´ W001º 01´ 33´´
09:29 Gear Up: 186 Knots
09:29 Flaps:2 at 186 Knots
09:30 Flaps:1 at 207 Knots
09:30 Flaps:0 at 214 Knots
09:44 Wind:228º@061 Knots Heading: 114º Ground Speed: 492 Knots Altitude 36289 ft
09:44 TOC
09:44 Fuel Weight: 21102 Lb
09:59 Wind:226º@051 Knots Heading: 107º Ground Speed: 493 Knots Altitude 37001 ft
10:14 Wind:232º@081 Knots Heading: 104º Ground Speed: 521 Knots Altitude 37024 ft
10:29 Wind:260º@063 Knots Heading: 137º Ground Speed: 504 Knots Altitude 37024 ft
10:39 TOD
10:39 Fuel Weight: 14462 Lb
10:44 Wind:268º@030 Knots Heading: 135º Ground Speed: 449 Knots Altitude 25068 ft
10:59 Wind:246º@007 Knots Heading: 118º Ground Speed: 240 Knots Altitude 5118 ft
10:59 Flaps:1 at 221 Knots
11:01 Flaps:2 at 183 Knots
11:01 Flaps:3 at 181 Knots
11:02 Flaps:4 at 169 Knots
11:03 Flaps:5 at 160 Knots
11:03 Gear Down: 160 Knots
11:03 Flaps:6 at 143 Knots
11:06 TouchDown:Rate -188 ft/min Speed: 138 Knots
11:06 VATSIM:DTTA 281030Z 09004KT 060V140 9999 FEW030 28/18 Q1014 NOSIG
11:06 Land
11:06 Wind:104º@004 Knots
11:06 Heading: 298º
11:06 Flight Duration: 01:37
11:06 Landing Weight: 185150 Lbs
11:06 POS N36º 51´ 03´´ E010º 13´ 45´´
11:09 Parking brakes on
11:09 Block to Block Duration: 01:44
11:09 Final Fuel: 12008 Lbls
11:09 Spent Fuel: 13891 Lbls
11:09 Flight Length: 705 NM
11:09 TOD Land Length: 143 NM

Exportar CSV

Powered by Drupal - Modified by Danger4k